Time;durP1;ratioP1;P1;durP2;ratioP2;P2;SDS_P1;SDS_P2;PMS_P1;PMS_P2;Temp;Humidity;BMP_temperature;BMP_pressure;BME280_temperature;BME280_humidity;BME280_pressure;Samples;Min_cycle;Max_cycle;Signal;HPM_P1;HPM_P2
2023/04/28 00:00:27;;;;;;;8.82;5.60;;;;;;;10.23;40.13;99340.69;5088395;28;20184;-74
2023/04/28 00:02:54;;;;;;;10.48;6.15;;;;;;;10.90;40.22;99461.63;5087811;28;20044;-75
2023/04/28 00:05:21;;;;;;;11.25;6.47;;;;;;;10.88;40.23;99467.94;5070608;28;20044;-72
2023/04/28 00:07:48;;;;;;;10.77;6.38;;;;;;;10.68;40.35;99423.94;5087397;28;20052;-72
2023/04/28 00:10:17;;;;;;;7.28;4.85;;;;;;;10.68;40.56;99421.28;5087664;28;20044;-72
2023/04/28 00:12:43;;;;;;;10.95;6.97;;;;;;;10.86;40.63;99457.44;5087298;28;20036;-72
2023/04/28 00:15:12;;;;;;;7.32;5.90;;;;;;;10.31;40.50;99385.31;5087546;28;20040;-72
2023/04/28 00:17:38;;;;;;;8.10;5.82;;;;;;;10.83;40.81;99456.75;5087893;28;20103;-72
2023/04/28 00:20:07;;;;;;;9.20;5.65;;;;;;;10.65;41.16;99428.56;5086647;28;20044;-72
2023/04/28 00:22:33;;;;;;;7.55;5.70;;;;;;;10.26;40.95;99358.22;5086550;28;20128;-72
2023/04/28 00:25:00;;;;;;;8.10;5.85;;;;;;;10.81;41.05;99455.97;5086958;28;20186;-72
2023/04/28 00:27:29;;;;;;;7.35;5.40;;;;;;;10.77;41.09;99449.97;5087332;28;20186;-72
2023/04/28 00:29:56;;;;;;;8.63;6.18;;;;;;;10.75;41.03;99449.16;5087182;28;20200;-72
2023/04/28 00:32:22;;;;;;;11.73;6.30;;;;;;;10.73;41.11;99445.75;5087280;28;20047;-72
2023/04/28 00:34:49;;;;;;;6.57;5.88;;;;;;;10.29;41.21;99376.59;5087607;28;20052;-72
2023/04/28 00:37:16;;;;;;;8.25;6.05;;;;;;;10.67;41.25;99446.09;5087627;28;20037;-72
2023/04/28 00:39:45;;;;;;;6.85;5.25;;;;;;;10.45;41.20;99416.38;5087071;28;20050;-76
2023/04/28 00:42:12;;;;;;;9.60;5.72;;;;;;;10.63;41.13;99444.53;5086266;28;20076;-75
2023/04/28 00:44:41;;;;;;;8.85;6.20;;;;;;;10.27;41.35;99387.28;5086165;28;20060;-75
2023/04/28 00:47:08;;;;;;;7.22;5.82;;;;;;;10.38;41.30;99410.53;5069976;28;20089;-75
2023/04/28 00:49:35;;;;;;;7.38;5.28;;;;;;;10.53;41.31;99446.81;5086618;28;20045;-75
2023/04/28 00:52:06;;;;;;;11.95;5.90;;;;;;;10.47;41.57;99446.28;5086764;28;20037;-75
2023/04/28 00:54:33;;;;;;;9.57;6.63;;;;;;;10.43;41.41;99439.44;5086813;28;20033;-75
2023/04/28 00:57:02;;;;;;;6.97;5.35;;;;;;;10.34;41.47;99429.34;5085911;28;20312;-75
2023/04/28 00:59:28;;;;;;;6.93;5.55;;;;;;;10.27;41.57;99436.75;5085863;28;20040;-75
2023/04/28 01:01:57;;;;;;;7.60;5.70;;;;;;;10.23;41.60;99441.34;5086638;28;20044;-75
2023/04/28 01:04:24;;;;;;;9.45;5.63;;;;;;;10.23;41.76;99444.00;5086560;28;20043;-75
2023/04/28 01:06:56;;;;;;;9.43;5.93;;;;;;;10.22;41.90;99446.72;5087052;28;20048;-75
2023/04/28 01:09:23;;;;;;;7.53;5.28;;;;;;;10.18;41.78;99426.63;5085420;28;20032;-75
2023/04/28 01:11:49;;;;;;;9.18;6.40;;;;;;;10.13;41.87;99442.78;5086299;28;20045;-74
2023/04/28 01:14:16;;;;;;;8.07;5.53;;;;;;;10.10;41.78;99439.41;5085526;28;20051;-75
2023/04/28 01:16:43;;;;;;;10.93;6.72;;;;;;;10.08;42.04;99438.66;5086880;28;20047;-74
2023/04/28 01:19:20;;;;;;;10.10;5.25;;;;;;;10.07;42.95;99434.28;5085446;28;20086;-74
2023/04/28 01:21:47;;;;;;;6.82;6.05;;;;;;;10.05;41.93;99434.38;5086561;28;20104;-74
2023/04/28 01:24:15;;;;;;;9.70;5.65;;;;;;;10.07;42.07;99434.28;5086169;28;20059;-75
2023/04/28 01:26:42;;;;;;;8.13;5.30;;;;;;;10.03;41.94;99427.44;5086311;28;20040;-75
2023/04/28 01:29:08;;;;;;;7.93;5.32;;;;;;;9.89;41.84;99401.69;5085175;28;20036;-75
2023/04/28 01:31:35;;;;;;;12.40;5.47;;;;;;;9.99;41.94;99413.50;5086192;28;20194;-76
2023/04/28 01:34:02;;;;;;;8.15;5.55;;;;;;;9.97;42.03;99418.03;5085142;28;20036;-76
2023/04/28 01:36:29;;;;;;;7.07;5.43;;;;;;;9.93;41.89;99414.66;5086358;28;20116;-76
2023/04/28 01:38:56;;;;;;;8.25;5.53;;;;;;;9.93;42.11;99413.81;5086450;28;20044;-75
2023/04/28 01:41:24;;;;;;;8.90;5.47;;;;;;;9.94;41.97;99419.03;5085033;28;20055;-75
2023/04/28 01:43:51;;;;;;;8.35;5.85;;;;;;;9.94;41.98;99418.19;5086246;28;20122;-74
2023/04/28 01:46:19;;;;;;;7.65;6.03;;;;;;;9.92;42.12;99415.59;5085323;28;20048;-75
2023/04/28 01:48:46;;;;;;;8.52;6.15;;;;;;;9.88;42.42;99410.56;5085801;28;20357;-75
2023/04/28 01:51:14;;;;;;;7.20;5.32;;;;;;;9.76;42.65;99390.88;5084850;28;20315;-75
2023/04/28 01:53:40;;;;;;;8.18;5.72;;;;;;;9.64;42.63;99372.97;5085381;28;20075;-75
2023/04/28 01:56:07;;;;;;;7.55;5.38;;;;;;;9.93;42.50;99408.53;5084865;28;20044;-75
2023/04/28 01:58:36;;;;;;;9.20;6.03;;;;;;;9.92;43.02;99414.75;5084807;28;20047;-75
2023/04/28 02:01:02;;;;;;;8.35;6.45;;;;;;;9.90;42.93;99420.13;5085731;28;20032;-74
2023/04/28 02:03:29;;;;;;;9.60;5.70;;;;;;;9.90;42.97;99416.63;5084701;28;20044;-74
2023/04/28 02:05:56;;;;;;;8.48;5.90;;;;;;;9.87;43.28;99416.78;5084874;28;20048;-75
2023/04/28 02:08:24;;;;;;;10.35;6.18;;;;;;;9.87;43.16;99415.00;5085590;28;20041;-76
2023/04/28 02:10:51;;;;;;;6.15;4.70;;;;;;;9.87;43.30;99416.78;5084714;28;20301;-74
2023/04/28 02:13:18;;;;;;;9.93;7.28;;;;;;;9.87;43.37;99422.06;5085537;28;20115;-74
2023/04/28 02:15:46;;;;;;;7.57;5.65;;;;;;;9.85;43.63;99414.22;5085498;28;20044;-73
2023/04/28 02:18:13;;;;;;;9.48;5.88;;;;;;;9.82;43.84;99414.38;5084624;28;20041;-74
2023/04/28 02:20:39;;;;;;;8.48;5.95;;;;;;;9.83;43.37;99415.22;5084855;28;20056;-73
2023/04/28 02:23:06;;;;;;;8.45;6.45;;;;;;;9.83;43.43;99410.78;5089387;28;20044;-74
2023/04/28 02:25:33;;;;;;;10.85;6.15;;;;;;;9.61;43.41;99381.91;5088964;28;20066;-74
2023/04/28 02:27:59;;;;;;;10.27;6.15;;;;;;;9.79;43.63;99413.66;5087989;28;20045;-74
2023/04/28 02:30:26;;;;;;;9.77;5.95;;;;;;;9.77;43.67;99415.53;5087057;28;20044;-73
2023/04/28 02:32:54;;;;;;;8.20;6.35;;;;;;;9.75;43.81;99417.41;5089277;28;20288;-74
2023/04/28 02:35:21;;;;;;;8.13;5.78;;;;;;;9.11;43.72;99310.34;5087643;28;20070;-73
2023/04/28 02:37:48;;;;;;;8.50;5.95;;;;;;;9.72;43.66;99412.25;5085473;28;20041;-74
2023/04/28 02:40:15;;;;;;;9.73;5.85;;;;;;;9.69;43.67;99410.63;5085520;28;20073;-74
2023/04/28 02:42:41;;;;;;;9.30;7.68;;;;;;;9.65;43.75;99414.38;5085304;28;20056;-74
2023/04/28 02:45:09;;;;;;;8.00;5.45;;;;;;;9.65;43.95;99413.50;5084737;28;20308;-74
2023/04/28 02:47:35;;;;;;;7.90;5.82;;;;;;;9.65;43.85;99405.56;5085559;28;20037;-74
2023/04/28 02:50:04;;;;;;;8.70;6.45;;;;;;;9.61;44.18;99412.81;5085804;28;20098;-74
2023/04/28 02:52:30;;;;;;;10.18;6.53;;;;;;;9.42;44.31;99382.91;5084220;28;20090;-71
2023/04/28 02:54:58;;;;;;;9.45;6.35;;;;;;;9.58;43.97;99413.81;5084542;28;20099;-71
2023/04/28 02:57:25;;;;;;;7.18;6.35;;;;;;;9.55;43.84;99410.47;5084196;28;20040;-71
2023/04/28 02:59:51;;;;;;;9.45;5.63;;;;;;;9.49;43.98;99411.63;5085344;28;20191;-72
2023/04/28 03:02:19;;;;;;;10.07;6.05;;;;;;;9.43;43.73;99404.00;5084859;28;20090;-73
2023/04/28 03:04:46;;;;;;;6.57;5.55;;;;;;;9.36;43.54;99404.34;5084838;28;20046;-72
2023/04/28 03:07:14;;;;;;;6.95;5.22;;;;;;;9.26;43.54;99391.59;5084821;28;20044;-71
2023/04/28 03:09:41;;;;;;;8.43;5.63;;;;;;;9.28;43.60;99397.66;5085070;28;20036;-72
2023/04/28 03:12:08;;;;;;;7.88;5.97;;;;;;;9.28;43.50;99392.34;5083887;28;20040;-72
2023/04/28 03:14:35;;;;;;;10.05;6.30;;;;;;;9.24;43.54;99395.22;5085398;28;20040;-72
2023/04/28 03:17:02;;;;;;;7.30;6.00;;;;;;;9.19;43.54;99397.22;5084599;28;20048;-72
2023/04/28 03:19:28;;;;;;;8.13;5.95;;;;;;;9.18;43.61;99392.84;5084085;28;20060;-72
2023/04/28 03:21:55;;;;;;;9.40;6.35;;;;;;;9.18;43.69;99384.91;5085476;28;20086;-72
2023/04/28 03:24:23;;;;;;;9.00;6.55;;;;;;;9.13;43.69;99385.16;5085352;28;20048;-72
2023/04/28 03:26:50;;;;;;;7.90;6.57;;;;;;;9.11;43.66;99384.38;5083907;28;20044;-71
2023/04/28 03:29:17;;;;;;;7.88;6.25;;;;;;;9.07;43.73;99387.22;5085348;28;20037;-72
2023/04/28 03:31:44;;;;;;;7.05;5.97;;;;;;;9.02;43.82;99387.44;5085460;28;20045;-72
2023/04/28 03:34:11;;;;;;;8.07;6.05;;;;;;;9.04;43.96;99392.66;5087468;28;20063;-72
2023/04/28 03:36:37;;;;;;;9.48;6.05;;;;;;;9.07;44.04;99390.72;5087488;28;20048;-72
2023/04/28 03:39:04;;;;;;;11.45;6.57;;;;;;;8.73;43.96;99345.72;5087297;28;20356;-73
2023/04/28 03:41:32;;;;;;;10.35;5.93;;;;;;;8.37;44.01;99283.13;5088104;28;20172;-72
2023/04/28 03:43:59;;;;;;;9.10;6.80;;;;;;;9.05;43.66;99397.03;5087967;28;20122;-72
2023/04/28 03:46:26;;;;;;;10.00;6.35;;;;;;;9.05;44.05;99397.88;5088390;28;20098;-72
2023/04/28 03:48:53;;;;;;;10.25;6.97;;;;;;;9.06;43.97;99394.31;5087184;28;20063;-72
2023/04/28 03:51:20;;;;;;;9.75;7.38;;;;;;;9.03;44.05;99393.59;5087925;28;20032;-72
2023/04/28 03:53:46;;;;;;;7.50;6.40;;;;;;;9.00;44.07;99389.31;5087962;28;20048;-72
2023/04/28 03:56:13;;;;;;;11.30;6.55;;;;;;;8.98;44.22;99396.47;5087022;28;20036;-72
2023/04/28 03:58:41;;;;;;;12.98;6.53;;;;;;;7.93;44.37;99220.06;5088299;28;20045;-72
2023/04/28 04:01:08;;;;;;;8.68;6.22;;;;;;;8.97;44.54;99390.31;5087020;28;20044;-72
2023/04/28 04:03:34;;;;;;;8.18;7.38;;;;;;;8.55;44.61;99331.59;5087787;28;20352;-72
2023/04/28 04:06:01;;;;;;;7.68;6.45;;;;;;;8.72;44.57;99371.28;5087288;28;20103;-72
2023/04/28 04:08:28;;;;;;;8.82;6.80;;;;;;;8.89;44.68;99400.41;5087715;28;20090;-72
2023/04/28 04:10:55;;;;;;;9.30;6.57;;;;;;;8.65;44.87;99367.22;5087696;28;20047;-72
2023/04/28 04:13:22;;;;;;;9.13;7.28;;;;;;;8.69;45.04;99374.06;5087542;28;20195;-72
2023/04/28 04:15:51;;;;;;;9.07;7.68;;;;;;;8.83;45.22;99392.75;5086736;28;20044;-72
2023/04/28 04:18:18;;;;;;;9.25;7.22;;;;;;;8.56;45.13;99355.28;5087485;28;20044;-72
2023/04/28 04:20:44;;;;;;;7.93;6.28;;;;;;;8.79;45.36;99395.63;5086626;28;20102;-72
2023/04/28 04:23:11;;;;;;;7.13;6.25;;;;;;;8.74;45.56;99400.28;5087134;28;20292;-72
2023/04/28 04:25:38;;;;;;;10.30;6.72;;;;;;;8.73;45.41;99395.91;5086373;28;20075;-73
2023/04/28 04:28:05;;;;;;;10.82;6.47;;;;;;;8.76;45.42;99401.91;5087564;28;20173;-72
2023/04/28 04:30:32;;;;;;;10.50;6.75;;;;;;;8.76;45.41;99401.06;5087624;28;20285;-72
2023/04/28 04:33:00;;;;;;;9.90;7.00;;;;;;;8.58;45.73;99368.41;5086367;28;20036;-72
2023/04/28 04:35:27;;;;;;;10.52;7.22;;;;;;;8.71;45.72;99389.84;5087204;28;20040;-72
2023/04/28 04:37:54;;;;;;;10.02;7.28;;;;;;;8.69;45.92;99384.63;5086264;28;20040;-72
2023/04/28 04:40:20;;;;;;;11.23;7.35;;;;;;;8.41;46.08;99349.88;5087068;28;20047;-72
2023/04/28 04:42:47;;;;;;;10.68;6.50;;;;;;;8.66;46.02;99390.91;5086059;28;20060;-72
2023/04/28 04:45:14;;;;;;;16.00;7.53;;;;;;;8.65;46.08;99386.56;5086586;28;20115;-72
2023/04/28 04:47:41;;;;;;;9.80;7.60;;;;;;;8.65;46.13;99381.28;5087192;28;20051;-72
2023/04/28 04:50:11;;;;;;;12.52;6.88;;;;;;;8.53;46.54;99379.19;5085998;28;20301;-72
2023/04/28 04:52:38;;;;;;;10.65;7.43;;;;;;;8.47;46.62;99379.50;5086740;28;20315;-72
2023/04/28 04:55:05;;;;;;;8.68;6.53;;;;;;;8.43;46.82;99375.28;5086815;28;20036;-72
2023/04/28 04:57:32;;;;;;;8.55;6.15;;;;;;;8.42;46.89;99378.84;5087003;28;20036;-72
2023/04/28 04:59:59;;;;;;;9.80;6.85;;;;;;;8.42;46.92;99378.84;5087196;28;20064;-72
2023/04/28 05:02:26;;;;;;;16.02;6.72;;;;;;;8.22;46.87;99347.22;5086896;28;20099;-72
2023/04/28 05:04:53;;;;;;;11.00;6.35;;;;;;;8.45;47.06;99377.84;5086915;28;20331;-72
2023/04/28 05:07:21;;;;;;;8.73;7.30;;;;;;;7.72;47.06;99259.78;5085871;28;20051;-72
2023/04/28 05:09:48;;;;;;;12.57;7.15;;;;;;;7.49;47.23;99215.97;5087167;28;20063;-72
2023/04/28 05:12:15;;;;;;;10.55;6.43;;;;;;;8.50;46.96;99375.84;5086708;28;20295;-72
2023/04/28 05:14:41;;;;;;;11.07;8.07;;;;;;;8.55;47.06;99379.13;5086850;28;20051;-73
2023/04/28 05:17:08;;;;;;;8.00;6.90;;;;;;;8.59;46.96;99381.56;5085495;28;20040;-73
2023/04/28 05:19:35;;;;;;;7.85;6.75;;;;;;;7.86;47.00;99260.88;5085257;28;20044;-74
2023/04/28 05:22:02;;;;;;;9.25;7.32;;;;;;;8.70;46.86;99382.84;5086477;28;20343;-73
2023/04/28 05:24:30;;;;;;;8.52;6.65;;;;;;;8.70;47.24;99383.69;5086372;28;20288;-73
2023/04/28 05:26:58;;;;;;;10.77;7.03;;;;;;;8.65;47.25;99378.63;5085272;28;20323;-73
2023/04/28 05:29:25;;;;;;;8.73;6.93;;;;;;;8.62;47.42;99376.13;5086271;28;20334;-74
2023/04/28 05:31:52;;;;;;;11.82;9.38;;;;;;;8.60;47.92;99378.00;5086007;28;20098;-73
2023/04/28 05:34:19;;;;;;;11.48;7.50;;;;;;;8.60;47.66;99366.56;5085127;28;20178;-73
2023/04/28 05:36:45;;;;;;;9.75;6.93;;;;;;;8.62;47.68;99370.00;5085369;28;20049;-73
2023/04/28 05:39:12;;;;;;;9.60;7.00;;;;;;;8.70;47.69;99367.00;5086458;28;20326;-73
2023/04/28 05:41:40;;;;;;;11.50;7.55;;;;;;;8.52;47.81;99326.44;5085804;28;20103;-73
2023/04/28 05:44:07;;;;;;;15.77;7.13;;;;;;;8.73;47.80;99369.50;5085880;28;20055;-73
2023/04/28 05:46:34;;;;;;;9.90;8.57;;;;;;;8.21;47.56;99268.94;5085778;28;20305;-73
2023/04/28 05:49:00;;;;;;;11.40;8.82;;;;;;;8.84;47.70;99369.84;5084913;28;20138;-73
2023/04/28 05:51:27;;;;;;;9.52;6.78;;;;;;;8.90;47.54;99374.81;5084717;28;20297;-73
2023/04/28 05:53:56;;;;;;;9.35;7.03;;;;;;;8.94;47.96;99365.81;5085617;28;20074;-73
2023/04/28 05:56:22;;;;;;;9.27;7.15;;;;;;;8.94;47.75;99368.47;5086047;28;20040;-73
2023/04/28 05:58:50;;;;;;;13.50;7.20;;;;;;;9.00;47.58;99376.94;5085862;28;20058;-73
2023/04/28 06:01:18;;;;;;;8.73;7.10;;;;;;;8.66;47.80;99300.22;5085523;28;20036;-74
2023/04/28 06:03:45;;;;;;;8.75;7.45;;;;;;;9.14;47.71;99363.06;5085510;28;20040;-73
2023/04/28 06:06:14;;;;;;;11.38;7.35;;;;;;;9.23;47.84;99373.22;5084690;28;20044;-73
2023/04/28 06:08:41;;;;;;;9.07;6.85;;;;;;;9.08;47.71;99334.28;5085443;28;20055;-73
2023/04/28 06:11:08;;;;;;;10.55;7.25;;;;;;;9.33;47.67;99363.03;5085641;28;20047;-73
2023/04/28 06:13:35;;;;;;;9.88;6.72;;;;;;;9.39;47.70;99359.22;5085216;28;20036;-74
2023/04/28 06:16:04;;;;;;;8.63;6.40;;;;;;;9.43;47.74;99364.31;5084756;28;20082;-73
2023/04/28 06:18:31;;;;;;;11.00;8.18;;;;;;;9.48;47.51;99350.88;5085261;28;20052;-73
2023/04/28 06:20:58;;;;;;;10.60;7.03;;;;;;;8.48;47.70;99159.34;5085738;28;20045;-74
2023/04/28 06:23:26;;;;;;;11.32;8.20;;;;;;;9.66;47.30;99344.63;5085916;28;20098;-73
2023/04/28 06:25:53;;;;;;;16.17;7.43;;;;;;;9.79;47.40;99345.72;5084425;28;20036;-74
2023/04/28 06:28:19;;;;;;;10.23;7.57;;;;;;;9.46;47.08;99268.09;5085390;28;20044;-73
2023/04/28 06:30:46;;;;;;;10.95;6.57;;;;;;;9.67;46.74;99274.91;5085609;28;20048;-74
2023/04/28 06:33:14;;;;;;;8.20;7.25;;;;;;;10.23;46.84;99345.16;5084979;28;20044;-73
2023/04/28 06:35:41;;;;;;;9.77;6.47;;;;;;;10.38;46.30;99343.47;5084191;28;20041;-73
2023/04/28 06:38:08;;;;;;;10.10;6.32;;;;;;;10.48;46.20;99347.31;5084535;28;20322;-73
2023/04/28 06:40:34;;;;;;;8.93;6.75;;;;;;;10.38;46.15;99307.22;5085031;28;20075;-73
2023/04/28 06:43:01;;;;;;;8.98;6.38;;;;;;;10.68;45.89;99330.31;5085058;28;20308;-73
2023/04/28 06:45:28;;;;;;;9.57;6.35;;;;;;;10.81;45.64;99331.38;5084233;28;20208;-73
2023/04/28 06:47:55;;;;;;;6.40;5.45;;;;;;;11.01;45.46;99332.88;5085012;28;20083;-73
2023/04/28 06:50:23;;;;;;;8.10;6.35;;;;;;;11.11;45.46;99316.34;5084606;28;20120;-73
2023/04/28 06:52:50;;;;;;;7.63;5.60;;;;;;;11.15;44.99;99311.72;5068300;28;20051;-73
2023/04/28 06:55:17;;;;;;;9.30;5.72;;;;;;;11.13;45.00;99305.66;5084837;28;20059;-73
2023/04/28 06:57:44;;;;;;;6.30;5.30;;;;;;;11.15;45.28;99306.41;5084562;28;20063;-74
2023/04/28 07:00:12;;;;;;;6.97;5.38;;;;;;;11.15;45.43;99312.59;5084857;28;20052;-73
2023/04/28 07:02:39;;;;;;;8.98;6.32;;;;;;;11.08;45.49;99291.81;5085388;28;20060;-73
2023/04/28 07:05:07;;;;;;;11.68;5.53;;;;;;;11.06;45.73;99299.00;5084798;28;20116;-74
2023/04/28 07:07:37;;;;;;;8.20;6.50;;;;;;;10.41;46.13;99195.78;5088334;28;20281;-73
2023/04/28 07:10:04;;;;;;;9.13;5.63;;;;;;;11.09;45.85;99299.69;5087804;28;20086;-73
2023/04/28 07:12:31;;;;;;;8.35;6.45;;;;;;;11.17;45.28;99288.63;5088708;28;20280;-73
2023/04/28 07:14:58;;;;;;;8.15;5.63;;;;;;;11.34;45.54;99285.81;5087555;28;20312;-74
2023/04/28 07:17:26;;;;;;;10.75;6.88;;;;;;;11.62;45.30;99292.13;5089037;28;20044;-73
2023/04/28 07:19:53;;;;;;;8.20;4.57;;;;;;;11.86;44.56;99282.69;5087496;28;20041;-73
2023/04/28 07:22:20;;;;;;;7.80;4.43;;;;;;;12.11;43.91;99280.22;5088453;28;20043;-73
2023/04/28 07:24:48;;;;;;;9.68;5.03;;;;;;;12.35;43.48;99275.22;5088093;28;20119;-74
2023/04/28 07:27:16;;;;;;;6.18;4.25;;;;;;;9.29;43.04;98703.84;5087470;28;20046;-74
2023/04/28 07:29:42;;;;;;;10.05;4.70;;;;;;;12.83;42.37;99280.97;5087669;28;20076;-73
2023/04/28 07:32:10;;;;;;;5.68;4.18;;;;;;;12.86;42.39;99277.25;5088257;28;20350;-74
2023/04/28 07:34:37;;;;;;;6.07;4.18;;;;;;;12.87;42.36;99287.78;5087227;28;20070;-73
2023/04/28 07:37:04;;;;;;;5.88;4.90;;;;;;;12.63;42.43;99241.53;5087277;28;20049;-73
2023/04/28 07:39:31;;;;;;;6.80;4.65;;;;;;;12.97;42.58;99267.63;5087268;28;20047;-73
2023/04/28 07:41:59;;;;;;;6.72;4.28;;;;;;;12.98;42.38;99266.66;5087041;28;20326;-74
2023/04/28 07:44:26;;;;;;;5.78;4.13;;;;;;;13.16;42.51;99265.44;5088162;28;20041;-74
2023/04/28 07:46:53;;;;;;;5.70;3.88;;;;;;;13.42;42.08;99261.03;5087984;28;20121;-74
2023/04/28 07:49:21;;;;;;;7.25;4.97;;;;;;;13.73;41.56;99259.78;5086986;28;20040;-74
2023/04/28 07:51:48;;;;;;;10.02;5.35;;;;;;;13.52;41.34;99192.03;5087953;28;20108;-74
2023/04/28 07:54:15;;;;;;;5.95;4.40;;;;;;;14.26;40.86;99268.47;5088208;28;20060;-74
2023/04/28 07:56:41;;;;;;;5.85;4.25;;;;;;;14.39;40.98;99263.09;5088480;28;20036;-74
2023/04/28 07:59:14;;;;;;;6.80;4.18;;;;;;;14.39;40.78;99220.44;5087215;28;20205;-74
2023/04/28 08:01:41;;;;;;;6.55;4.57;;;;;;;14.51;40.18;99267.53;5087926;28;20048;-74
2023/04/28 08:04:08;;;;;;;7.55;4.57;;;;;;;14.01;40.93;99225.88;5087162;28;20064;-73
2023/04/28 08:06:36;;;;;;;11.95;5.35;;;;;;;14.08;41.10;99278.63;5087694;28;20116;-74
2023/04/28 08:09:04;;;;;;;7.05;4.50;;;;;;;13.95;41.72;99272.44;5088373;28;20211;-74
2023/04/28 08:11:32;;;;;;;8.50;4.63;;;;;;;13.47;41.58;99202.16;5086951;28;20040;-74
2023/04/28 08:14:01;;;;;;;7.22;3.70;;;;;;;14.03;41.92;99271.91;5086759;28;20033;-74
2023/04/28 08:16:30;;;;;;;5.55;4.10;;;;;;;14.17;41.51;99266.44;5087216;28;20036;-74
2023/04/28 08:18:58;;;;;;;4.82;4.00;;;;;;;13.85;41.36;99210.13;5085822;28;20045;-74
2023/04/28 08:21:25;;;;;;;6.35;4.18;;;;;;;14.04;41.64;99223.84;5086536;28;20047;-74
2023/04/28 08:23:52;;;;;;;5.50;3.95;;;;;;;14.32;41.38;99245.84;5087967;28;20227;-74
2023/04/28 08:26:19;;;;;;;6.97;4.15;;;;;;;14.43;41.02;99235.25;5086478;28;20126;-74
2023/04/28 08:28:46;;;;;;;6.85;3.97;;;;;;;14.57;41.19;99235.13;5087160;28;20252;-74
2023/04/28 08:31:13;;;;;;;5.60;3.83;;;;;;;14.59;40.77;99229.69;5086465;28;20297;-74
2023/04/28 08:33:43;;;;;;;6.65;4.15;;;;;;;14.30;40.82;99197.13;5087374;28;20044;-74
2023/04/28 08:36:11;;;;;;;8.30;4.40;;;;;;;14.41;41.14;99224.69;5087162;28;20104;-74
2023/04/28 08:38:38;;;;;;;7.93;3.97;;;;;;;14.40;40.99;99228.31;5086318;28;20063;-74
2023/04/28 08:41:08;;;;;;;6.72;3.60;;;;;;;14.48;40.90;99230.44;5086375;28;20067;-74
2023/04/28 08:43:35;;;;;;;8.20;3.65;;;;;;;13.93;40.93;99103.00;5086755;28;20048;-74
2023/04/28 08:46:06;;;;;;;7.55;4.93;;;;;;;14.83;40.67;99219.03;5086939;28;20041;-74
2023/04/28 08:48:39;;;;;;;8.00;4.38;;;;;;;15.01;40.27;99218.50;5085992;28;20044;-74
2023/04/28 08:51:15;;;;;;;6.68;4.88;;;;;;;15.22;39.49;99207.16;5087067;28;20086;-74
2023/04/28 08:53:49;;;;;;;5.70;3.63;;;;;;;15.32;39.34;99209.00;5086885;28;20279;-74
2023/04/28 08:56:17;;;;;;;4.53;3.55;;;;;;;15.38;39.82;99202.34;5086842;28;20044;-74
2023/04/28 08:58:44;;;;;;;6.07;4.75;;;;;;;15.48;39.49;99197.16;5085826;28;20067;-74
2023/04/28 09:01:11;;;;;;;9.30;4.00;;;;;;;14.56;39.43;99029.88;5085669;28;20048;-74
2023/04/28 09:03:39;;;;;;;7.28;4.30;;;;;;;15.31;39.34;99151.25;5086749;28;20052;-74
2023/04/28 09:06:06;;;;;;;5.13;3.90;;;;;;;15.46;39.23;99202.59;5086730;28;20111;-74
2023/04/28 09:08:34;;;;;;;10.38;4.20;;;;;;;15.32;39.44;99209.00;5085608;28;20301;-74
2023/04/28 09:11:08;;;;;;;6.10;4.22;;;;;;;14.78;39.29;99138.50;5086401;28;20046;-74
2023/04/28 09:13:35;;;;;;;8.50;4.70;;;;;;;15.05;40.00;99197.78;5086293;28;20094;-74
2023/04/28 09:16:03;;;;;;;5.13;3.72;;;;;;;15.11;40.55;99193.78;5086350;28;20044;-73
2023/04/28 09:18:32;;;;;;;6.50;4.43;;;;;;;15.23;40.26;99191.03;5086221;28;20340;-74
2023/04/28 09:21:07;;;;;;;7.25;3.97;;;;;;;15.11;39.86;99164.44;5086255;28;20044;-74
2023/04/28 09:23:36;;;;;;;4.93;3.75;;;;;;;15.29;40.21;99201.25;5086464;28;20348;-74
2023/04/28 09:26:05;;;;;;;7.25;5.35;;;;;;;15.19;40.34;99200.25;5086042;28;20063;-75
2023/04/28 09:28:32;;;;;;;6.38;3.90;;;;;;;15.14;40.38;99183.72;5085856;28;20200;-75
2023/04/28 09:30:59;;;;;;;4.60;3.88;;;;;;;15.13;40.67;99182.03;5085998;28;20050;-75
2023/04/28 09:33:26;;;;;;;6.35;4.38;;;;;;;14.77;40.50;99104.78;5085022;28;20048;-75
2023/04/28 09:35:53;;;;;;;7.97;3.92;;;;;;;14.99;40.50;99139.53;5085091;28;20275;-75
2023/04/28 09:38:21;;;;;;;10.93;4.95;;;;;;;15.42;39.96;99166.44;5085291;28;20082;-75
2023/04/28 09:41:02;;;;;;;6.70;3.75;;;;;;;15.52;39.97;99163.88;5086031;28;20036;-75
2023/04/28 09:43:31;;;;;;;5.70;4.00;;;;;;;15.47;40.05;99124.19;5085405;28;20209;-75
2023/04/28 09:45:59;;;;;;;5.00;3.70;;;;;;;15.83;39.41;99146.31;5084770;28;20044;-74
2023/04/28 09:48:31;;;;;;;7.50;3.67;;;;;;;15.97;39.53;99132.69;5085600;28;20033;-74
2023/04/28 09:50:59;;;;;;;6.35;4.18;;;;;;;16.17;38.85;99125.72;5085618;28;20347;-75
2023/04/28 09:53:27;;;;;;;6.22;3.83;;;;;;;15.69;38.93;99014.69;5086214;28;20032;-75
2023/04/28 09:55:57;;;;;;;8.98;4.40;;;;;;;16.27;38.56;99111.47;5086064;28;20037;-72
2023/04/28 09:58:25;;;;;;;6.90;3.78;;;;;;;16.31;38.85;99106.72;5084530;28;20123;-73
2023/04/28 10:00:54;;;;;;;7.05;4.28;;;;;;;16.42;39.16;99103.16;5084182;28;20060;-73
2023/04/28 10:03:26;;;;;;;5.38;3.80;;;;;;;16.24;38.53;99054.72;5067811;28;20044;-73
2023/04/28 10:05:54;;;;;;;7.55;4.00;;;;;;;16.39;38.56;99068.66;5085303;28;20032;-74
2023/04/28 10:08:21;;;;;;;7.47;3.97;;;;;;;16.61;38.56;99088.13;5084517;28;20371;-73
2023/04/28 10:10:49;;;;;;;11.50;4.05;;;;;;;16.67;38.55;99089.44;5084142;28;20308;-73
2023/04/28 10:13:18;;;;;;;9.82;3.38;;;;;;;16.50;38.26;99071.25;5085339;28;20196;-73
2023/04/28 10:15:46;;;;;;;6.97;3.80;;;;;;;16.61;38.18;99103.31;5085348;28;20064;-73
2023/04/28 10:18:14;;;;;;;5.38;3.50;;;;;;;15.80;38.60;98956.84;5085600;28;20284;-73
2023/04/28 10:20:46;;;;;;;5.95;3.55;;;;;;;16.32;38.54;99052.25;5085501;28;20236;-73
2023/04/28 10:23:58;;;;;;;6.05;3.47;;;;;;;16.72;37.84;99086.38;5084759;28;20078;-73
2023/04/28 10:26:37;;;;;;;8.05;3.65;;;;;;;16.83;37.62;99084.50;5085292;28;20052;-73
2023/04/28 10:29:05;;;;;;;5.63;3.55;;;;;;;16.89;38.00;99083.97;5085451;28;20090;-74
2023/04/28 10:31:33;;;;;;;6.70;3.72;;;;;;;16.39;37.92;98972.34;5085016;28;20051;-74
2023/04/28 10:34:22;;;;;;;6.47;3.00;;;;;;;16.51;37.23;98963.28;5085196;28;20098;-74
2023/04/28 10:36:51;;;;;;;5.60;3.17;;;;;;;17.12;37.51;99060.56;5084160;28;20316;-74
2023/04/28 10:39:18;;;;;;;5.22;3.33;;;;;;;16.99;37.78;99026.00;5085338;28;20048;-74
2023/04/28 10:41:47;;;;;;;4.95;3.05;;;;;;;17.16;37.72;99051.31;5086079;28;20036;-74
2023/04/28 10:44:42;;;;;;;7.78;3.17;;;;;;;17.13;37.14;99040.00;5089140;28;20200;-74
2023/04/28 10:47:10;;;;;;;;;;;;;;;17.03;36.90;99053.34;5089631;28;20036;-74
2023/04/28 10:50:06;;;;;;;5.32;3.42;;;;;;;17.13;37.10;99048.88;5089059;28;20226;-74
2023/04/28 10:52:49;;;;;;;4.70;3.42;;;;;;;17.07;37.05;99021.81;5089314;28;20048;-74
2023/04/28 10:55:35;;;;;;;4.18;3.22;;;;;;;17.28;37.65;99044.91;5071566;28;20063;-74
2023/04/28 10:58:33;;;;;;;7.43;2.95;;;;;;;17.43;36.97;99041.84;5088067;28;20040;-74
2023/04/28 11:01:30;;;;;;;4.57;3.70;;;;;;;17.31;36.85;99038.44;5071452;28;20053;-74
2023/04/28 11:04:02;;;;;;;5.03;3.33;;;;;;;17.30;37.64;99028.69;5082796;28;20063;-74
2023/04/28 11:06:31;;;;;;;4.47;3.53;;;;;;;17.22;37.80;99015.97;5087857;28;20054;-74
2023/04/28 11:08:59;;;;;;;5.63;2.97;;;;;;;17.49;37.97;99028.78;5088661;28;20040;-74
2023/04/28 11:11:26;;;;;;;5.80;2.72;;;;;;;17.67;37.71;99034.34;5088814;28;20195;-74
2023/04/28 11:13:55;;;;;;;4.43;2.95;;;;;;;17.77;37.68;99016.47;5088978;28;20048;-74
2023/04/28 11:16:24;;;;;;;4.15;2.95;;;;;;;17.66;37.34;98976.38;5088401;28;20040;-74
2023/04/28 11:18:58;;;;;;;5.10;3.65;;;;;;;17.98;36.64;98983.34;5088413;28;20040;-74
2023/04/28 11:21:28;;;;;;;18.33;4.00;;;;;;;17.93;36.83;98973.03;5088548;28;20058;-74
2023/04/28 11:23:55;;;;;;;5.47;3.47;;;;;;;17.95;36.95;98966.53;5087616;28;20288;-74
2023/04/28 11:26:23;;;;;;;3.92;2.88;;;;;;;18.11;36.86;98983.91;5087639;28;20036;-73
2023/04/28 11:28:52;;;;;;;5.28;3.30;;;;;;;17.99;36.49;98956.38;5088213;28;20044;-74
2023/04/28 11:31:22;;;;;;;5.55;2.97;;;;;;;18.18;36.56;98968.94;5087657;28;20105;-74
2023/04/28 11:33:54;;;;;;;6.15;3.17;;;;;;;18.36;36.78;98977.94;5087448;28;20107;-74
2023/04/28 11:36:27;;;;;;;4.78;2.50;;;;;;;18.35;35.89;98968.22;5088394;28;20078;-74
2023/04/28 11:38:56;;;;;;;4.07;3.43;;;;;;;18.03;36.57;98922.09;5088405;28;20293;-74
2023/04/28 11:41:23;;;;;;;4.78;2.90;;;;;;;18.20;36.77;98977.69;5087589;28;20437;-74